Time;durP1;ratioP1;P1;durP2;ratioP2;P2;SDS_P1;SDS_P2;PMS_P1;PMS_P2;Temp;Humidity;BMP_temperature;BMP_pressure;BME280_temperature;BME280_humidity;BME280_pressure;Samples;Min_cycle;Max_cycle;Signal;HPM_P1;HPM_P2
2021/12/02 00:02:14;;;;;;;7.20;1.48;;;2.90;99.90;;;;;;4956237;28;20061;-65
2021/12/02 00:04:40;;;;;;;5.03;0.70;;;2.90;99.90;;;;;;4979467;28;20090;-65
2021/12/02 00:07:07;;;;;;;8.95;1.10;;;2.90;99.90;;;;;;4958252;28;20062;-65
2021/12/02 00:09:34;;;;;;;7.70;1.08;;;2.90;99.90;;;;;;4964693;28;20368;-65
2021/12/02 00:12:00;;;;;;;8.45;1.00;;;2.90;99.90;;;;;;4957519;28;20402;-65
2021/12/02 00:14:27;;;;;;;7.07;0.70;;;2.90;99.90;;;;;;4945367;28;20101;-65
2021/12/02 00:22:10;;;;;;;6.13;0.70;;;3.00;99.90;;;;;;4958029;28;20100;-65
2021/12/02 00:24:39;;;;;;;3.92;0.70;;;3.00;99.90;;;;;;4963452;28;20298;-65
2021/12/02 00:27:10;;;;;;;8.32;1.10;;;3.00;99.90;;;;;;4937248;28;20483;-65
2021/12/02 00:29:38;;;;;;;4.70;0.60;;;3.00;99.90;;;;;;4965617;28;20058;-65
2021/12/02 00:32:10;;;;;;;4.88;0.70;;;3.00;99.90;;;;;;4957514;28;20039;-65
2021/12/02 00:34:43;;;;;;;7.35;1.00;;;3.10;99.90;;;;;;4946855;28;20051;-65
2021/12/02 00:37:09;;;;;;;8.63;0.95;;;3.10;99.90;;;;;;4957195;28;20045;-65
2021/12/02 00:39:35;;;;;;;3.42;0.57;;;3.10;99.90;;;;;;4962255;28;20058;-65
2021/12/02 00:42:01;;;;;;;5.53;0.77;;;3.10;99.90;;;;;;4958010;28;20070;-65
2021/12/02 00:44:29;;;;;;;5.70;1.00;;;3.10;99.90;;;;;;4946579;28;20542;-65
2021/12/02 00:46:55;;;;;;;6.18;0.60;;;3.00;99.90;;;;;;4964391;28;20047;-66
2021/12/02 00:49:21;;;;;;;7.95;0.90;;;3.00;99.90;;;;;;4956432;28;20058;-65
2021/12/02 00:51:56;;;;;;;3.67;0.73;;;3.00;99.90;;;;;;4961838;28;20480;-65
2021/12/02 00:54:24;;;;;;;7.00;0.75;;;2.90;99.90;;;;;;4958927;28;20047;-65
2021/12/02 00:56:51;;;;;;;6.03;0.70;;;2.90;99.90;;;;;;4964569;28;20081;-65
2021/12/02 00:59:17;;;;;;;7.28;0.55;;;2.90;99.90;;;;;;4956730;28;20476;-65
2021/12/02 01:01:44;;;;;;;9.98;0.90;;;2.80;99.90;;;;;;4964994;28;20034;-66
2021/12/02 01:04:13;;;;;;;6.72;0.95;;;2.80;99.90;;;;;;4940705;28;20626;-65
2021/12/02 01:06:40;;;;;;;7.18;0.80;;;2.80;99.90;;;;;;4947318;28;20046;-65
2021/12/02 01:09:09;;;;;;;3.10;0.60;;;2.70;99.90;;;;;;4938204;28;20395;-65
2021/12/02 01:11:35;;;;;;;4.93;0.90;;;2.70;99.90;;;;;;4949303;28;20043;-66
2021/12/02 01:14:01;;;;;;;5.63;0.90;;;2.60;99.90;;;;;;4953997;28;20043;-65
2021/12/02 01:16:28;;;;;;;2.40;0.77;;;2.60;99.90;;;;;;4961086;28;20047;-65
2021/12/02 01:18:54;;;;;;;5.88;0.60;;;2.50;99.90;;;;;;4956941;28;20035;-65
2021/12/02 01:21:22;;;;;;;6.68;0.90;;;2.50;99.90;;;;;;4966436;28;20046;-65
2021/12/02 01:23:55;;;;;;;3.72;0.57;;;2.50;99.90;;;;;;4956479;28;20038;-65
2021/12/02 01:26:21;;;;;;;3.53;0.50;;;2.50;99.90;;;;;;4963943;28;20035;-65
2021/12/02 01:28:49;;;;;;;6.05;0.90;;;2.40;99.90;;;;;;4957788;28;20086;-65
2021/12/02 01:31:16;;;;;;;5.07;0.52;;;2.40;99.90;;;;;;4948882;28;20390;-65
2021/12/02 01:33:45;;;;;;;3.97;0.40;;;2.40;99.90;;;;;;4960859;28;20054;-65
2021/12/02 01:36:11;;;;;;;7.15;0.80;;;2.40;99.90;;;;;;4961821;28;20085;-65
2021/12/02 01:38:38;;;;;;;3.50;0.70;;;2.40;99.90;;;;;;4962996;28;20050;-65
2021/12/02 01:41:05;;;;;;;4.43;0.52;;;2.50;99.90;;;;;;4961272;28;20051;-66
2021/12/02 01:43:51;;;;;;;3.05;0.40;;;2.50;99.90;;;;;;4968913;28;20085;-66
2021/12/02 01:46:23;;;;;;;3.90;0.50;;;2.50;99.90;;;;;;4959937;28;20039;-65
2021/12/02 01:49:06;;;;;;;5.00;0.50;;;2.60;99.90;;;;;;4962795;28;20042;-65
2021/12/02 01:51:40;;;;;;;6.78;0.50;;;2.70;99.90;;;;;;4945917;28;20531;-65
2021/12/02 01:54:20;;;;;;;5.27;0.60;;;2.80;99.90;;;;;;4947887;28;20046;-65
2021/12/02 01:57:05;;;;;;;9.13;0.90;;;2.80;99.90;;;;;;4959287;28;20057;-65
2021/12/02 01:59:35;;;;;;;4.15;0.40;;;2.90;99.90;;;;;;4964626;28;20051;-65
2021/12/02 02:02:10;;;;;;;6.90;0.68;;;2.90;99.90;;;;;;4964373;28;20042;-65
2021/12/02 02:04:36;;;;;;;8.00;0.50;;;3.00;99.90;;;;;;4964629;28;20047;-65
2021/12/02 02:07:20;;;;;;;5.68;0.55;;;3.00;99.90;;;;;;4960201;28;20740;-65
2021/12/02 02:09:46;;;;;;;4.30;0.67;;;2.90;99.90;;;;;;4970605;28;20159;-65
2021/12/02 02:12:13;;;;;;;4.88;0.50;;;2.90;99.90;;;;;;4961826;28;20082;-65
2021/12/02 02:14:41;;;;;;;1.67;0.30;;;2.80;99.90;;;;;;4966261;28;20057;-65
2021/12/02 02:17:16;;;;;;;2.67;0.40;;;2.80;99.90;;;;;;4959936;28;20602;-65
2021/12/02 02:19:42;;;;;;;5.95;0.60;;;2.70;99.90;;;;;;4968322;28;20423;-65
2021/12/02 02:22:08;;;;;;;3.30;0.40;;;2.70;99.90;;;;;;4944216;28;20070;-66
2021/12/02 02:24:34;;;;;;;4.60;0.50;;;2.60;99.90;;;;;;4963770;28;20040;-65
2021/12/02 02:27:02;;;;;;;1.25;0.32;;;2.60;99.90;;;;;;4958577;28;20110;-66
2021/12/02 02:29:28;;;;;;;4.63;0.50;;;2.60;99.90;;;;;;4952875;28;20035;-66
2021/12/02 02:31:54;;;;;;;2.70;0.30;;;2.50;99.90;;;;;;4954251;28;20558;-66
2021/12/02 02:34:24;;;;;;;2.13;0.20;;;2.50;99.90;;;;;;4962488;28;20081;-66
2021/12/02 02:37:00;;;;;;;3.78;0.40;;;2.40;99.90;;;;;;4961632;28;20050;-66
2021/12/02 02:39:28;;;;;;;5.47;0.50;;;2.40;99.90;;;;;;4964151;28;20038;-66
2021/12/02 02:41:59;;;;;;;5.03;0.52;;;2.30;99.90;;;;;;4961080;28;20098;-66
2021/12/02 02:44:26;;;;;;;2.65;0.30;;;2.20;99.90;;;;;;4960751;28;20069;-66
2021/12/02 02:46:52;;;;;;;2.90;0.40;;;2.20;99.90;;;;;;4958016;28;20038;-66
2021/12/02 02:49:18;;;;;;;3.97;0.40;;;2.20;99.90;;;;;;4966244;28;20043;-66
2021/12/02 02:51:45;;;;;;;1.98;0.30;;;2.10;99.90;;;;;;4966277;28;20039;-66
2021/12/02 02:54:13;;;;;;;2.72;0.25;;;2.10;99.90;;;;;;4957572;28;20045;-66
2021/12/02 02:56:50;;;;;;;4.90;0.35;;;2.00;99.90;;;;;;4967572;28;20047;-66
2021/12/02 02:59:33;;;;;;;3.70;0.20;;;2.10;99.90;;;;;;4959789;28;20099;-66
2021/12/02 03:05:00;;;;;;;1.70;0.10;;;2.10;99.90;;;;;;4957029;28;20055;-66
2021/12/02 03:07:36;;;;;;;4.18;0.47;;;2.10;99.90;;;;;;4962236;28;20089;-66
2021/12/02 03:12:50;;;;;;;2.55;0.30;;;2.00;99.90;;;;;;4964149;28;20049;-66
2021/12/02 03:17:44;;;;;;;2.72;0.20;;;1.90;99.90;;;;;;4966750;28;20126;-66
2021/12/02 03:20:11;;;;;;;2.67;0.30;;;1.80;99.90;;;;;;4964336;28;20073;-66
2021/12/02 03:22:37;;;;;;;2.97;0.30;;;1.80;99.90;;;;;;4967207;28;20042;-66
2021/12/02 03:25:05;;;;;;;4.57;0.60;;;1.80;99.90;;;;;;4957265;28;20042;-66
2021/12/02 03:27:31;;;;;;;8.07;0.35;;;1.70;99.90;;;;;;4960397;28;20463;-66
2021/12/02 03:29:56;;;;;;;4.80;0.35;;;1.70;99.90;;;;;;4958283;28;20279;-66
2021/12/02 03:32:22;;;;;;;2.38;0.30;;;1.70;99.90;;;;;;4962954;28;20439;-66
2021/12/02 03:34:48;;;;;;;2.65;0.40;;;1.70;99.90;;;;;;4959438;28;20114;-66
2021/12/02 03:37:14;;;;;;;4.63;0.40;;;1.60;99.90;;;;;;4968400;28;20098;-66
2021/12/02 03:39:39;;;;;;;3.67;0.32;;;1.60;99.90;;;;;;4939853;28;20448;-66
2021/12/02 03:42:06;;;;;;;3.05;0.50;;;1.60;99.90;;;;;;4960412;28;20035;-66
2021/12/02 03:44:32;;;;;;;2.35;0.25;;;1.50;99.90;;;;;;4957756;28;20031;-66
2021/12/02 03:46:58;;;;;;;1.77;0.40;;;1.50;99.90;;;;;;4959970;28;20134;-66
2021/12/02 03:49:24;;;;;;;5.20;0.40;;;1.50;99.90;;;;;;4958813;28;20058;-66
2021/12/02 03:51:50;;;;;;;5.68;0.50;;;1.60;99.90;;;;;;4966552;28;20073;-66
2021/12/02 03:54:16;;;;;;;4.47;0.63;;;1.60;99.90;;;;;;4948823;28;20043;-66
2021/12/02 03:56:41;;;;;;;8.18;0.85;;;1.70;99.90;;;;;;4957651;28;20054;-66
2021/12/02 03:59:07;;;;;;;2.45;0.40;;;1.70;99.90;;;;;;4948055;28;20054;-66
2021/12/02 04:01:33;;;;;;;2.85;0.40;;;1.80;99.90;;;;;;4958410;28;20030;-66
2021/12/02 04:03:58;;;;;;;3.55;0.60;;;1.80;99.90;;;;;;4966723;28;20047;-66
2021/12/02 04:06:25;;;;;;;5.15;0.47;;;1.80;99.90;;;;;;4960062;28;20038;-66
2021/12/02 04:08:54;;;;;;;2.13;0.45;;;1.80;99.90;;;;;;4971830;28;20669;-66
2021/12/02 04:11:34;;;;;;;2.97;0.30;;;1.90;99.90;;;;;;4959190;28;20039;-65
2021/12/02 04:16:29;;;;;;;5.85;0.43;;;1.90;99.90;;;;;;4939064;28;20047;-66
2021/12/02 04:18:55;;;;;;;3.60;0.30;;;1.90;99.90;;;;;;4963306;28;20078;-66
2021/12/02 04:21:21;;;;;;;4.00;0.20;;;2.00;99.90;;;;;;4956877;28;20023;-66
2021/12/02 04:23:47;;;;;;;2.53;0.40;;;2.00;99.90;;;;;;4944949;28;20651;-65
2021/12/02 04:26:13;;;;;;;4.90;0.40;;;2.00;99.90;;;;;;4953601;28;20039;-65
2021/12/02 04:28:38;;;;;;;3.33;0.50;;;2.00;99.90;;;;;;4962581;28;20051;-65
2021/12/02 04:31:05;;;;;;;3.38;0.32;;;1.90;99.90;;;;;;4960945;28;20130;-65
2021/12/02 04:33:31;;;;;;;2.58;0.35;;;1.90;99.90;;;;;;4944210;28;20085;-65
2021/12/02 04:35:57;;;;;;;4.50;1.00;;;1.80;99.90;;;;;;4956506;28;20042;-64
2021/12/02 04:38:23;;;;;;;6.18;0.25;;;1.80;99.90;;;;;;4964795;28;20050;-65
2021/12/02 04:40:48;;;;;;;3.03;0.30;;;1.70;99.90;;;;;;4962149;28;20102;-65
2021/12/02 04:43:14;;;;;;;2.83;0.30;;;1.60;99.90;;;;;;4941248;28;20051;-65
2021/12/02 04:45:40;;;;;;;2.83;0.38;;;1.60;99.90;;;;;;4961178;28;20117;-65
2021/12/02 04:48:06;;;;;;;1.55;0.40;;;1.60;99.90;;;;;;4961066;28;20361;-65
2021/12/02 04:50:32;;;;;;;1.20;0.30;;;1.50;99.90;;;;;;4967683;28;20035;-65
2021/12/02 04:52:58;;;;;;;5.05;0.40;;;1.50;99.90;;;;;;4956135;28;20038;-65
2021/12/02 04:55:24;;;;;;;4.00;0.30;;;1.50;99.90;;;;;;4964792;28;20386;-65
2021/12/02 04:57:50;;;;;;;3.40;0.40;;;1.50;99.90;;;;;;4953006;28;20106;-65
2021/12/02 05:00:17;;;;;;;3.88;0.30;;;1.60;99.90;;;;;;4964045;28;20039;-65
2021/12/02 05:02:44;;;;;;;1.92;0.30;;;1.60;99.90;;;;;;4961229;28;20467;-65
2021/12/02 05:05:10;;;;;;;2.15;0.60;;;1.70;99.90;;;;;;4961777;28;20054;-65
2021/12/02 05:07:36;;;;;;;2.58;0.40;;;1.70;99.90;;;;;;4942412;28;20106;-65
2021/12/02 05:10:04;;;;;;;2.58;0.40;;;1.70;99.90;;;;;;4963437;28;20039;-65
2021/12/02 05:12:30;;;;;;;3.70;0.63;;;1.70;99.90;;;;;;4959656;28;20073;-65
2021/12/02 05:14:56;;;;;;;3.35;0.40;;;1.60;99.90;;;;;;4967952;28;20039;-65
2021/12/02 05:17:21;;;;;;;2.13;0.20;;;1.60;99.90;;;;;;4964122;28;20035;-65
2021/12/02 05:19:47;;;;;;;2.33;0.22;;;1.60;99.90;;;;;;4960643;28;20655;-65
2021/12/02 05:22:14;;;;;;;0.93;0.20;;;1.60;99.90;;;;;;4967999;28;20085;-65
2021/12/02 05:24:40;;;;;;;1.92;0.45;;;1.60;99.90;;;;;;4960489;28;20046;-65
2021/12/02 05:27:06;;;;;;;2.25;0.20;;;1.50;99.90;;;;;;4964572;28;20039;-65
2021/12/02 05:29:32;;;;;;;2.25;0.20;;;1.50;99.90;;;;;;4961443;28;20047;-66
2021/12/02 05:31:58;;;;;;;2.47;0.20;;;1.50;99.90;;;;;;4969399;28;20039;-65
2021/12/02 05:34:24;;;;;;;3.80;0.20;;;1.50;99.90;;;;;;4946393;28;20422;-65
2021/12/02 05:36:50;;;;;;;1.13;0.10;;;1.50;99.90;;;;;;4955789;28;20039;-65
2021/12/02 05:39:15;;;;;;;3.90;0.20;;;1.50;99.90;;;;;;4958400;28;20037;-65
2021/12/02 05:41:42;;;;;;;2.70;0.22;;;1.50;99.90;;;;;;4967438;28;20039;-65
2021/12/02 05:44:08;;;;;;;3.30;0.20;;;1.50;99.90;;;;;;4957796;28;20468;-65
2021/12/02 05:46:33;;;;;;;1.02;0.15;;;1.50;99.90;;;;;;4971354;28;20039;-65
2021/12/02 05:48:59;;;;;;;1.42;0.28;;;1.50;99.90;;;;;;4959444;28;20046;-65
2021/12/02 05:51:25;;;;;;;1.35;0.20;;;1.50;99.90;;;;;;4969054;28;20051;-65
2021/12/02 05:53:51;;;;;;;2.20;0.20;;;1.50;99.90;;;;;;4970133;28;20038;-65
2021/12/02 05:56:16;;;;;;;1.92;0.20;;;1.40;99.90;;;;;;4960622;28;20142;-65
2021/12/02 05:58:42;;;;;;;3.55;0.40;;;1.50;99.90;;;;;;4967021;28;20042;-65
2021/12/02 06:01:08;;;;;;;1.05;0.20;;;1.40;99.90;;;;;;4957517;28;20038;-65
2021/12/02 06:03:36;;;;;;;2.25;0.50;;;1.40;99.90;;;;;;4970742;28;20050;-65
2021/12/02 06:06:03;;;;;;;1.98;0.20;;;1.40;99.90;;;;;;4960238;28;20043;-65
2021/12/02 06:08:30;;;;;;;2.58;0.40;;;1.40;99.90;;;;;;4967025;28;20105;-65
2021/12/02 06:10:56;;;;;;;2.50;0.63;;;1.40;99.90;;;;;;4941797;28;20051;-65
2021/12/02 06:13:21;;;;;;;2.97;0.30;;;1.40;99.90;;;;;;4961688;28;20065;-65
2021/12/02 06:15:47;;;;;;;3.10;0.43;;;1.40;99.90;;;;;;4960379;28;20047;-65
2021/12/02 06:18:13;;;;;;;4.20;0.45;;;1.50;99.90;;;;;;4962866;28;20038;-65
2021/12/02 06:20:38;;;;;;;2.72;0.40;;;1.50;99.90;;;;;;4960258;28;20499;-65
2021/12/02 06:23:04;;;;;;;2.70;0.40;;;1.60;99.90;;;;;;4968802;28;20043;-65
2021/12/02 06:27:56;;;;;;;4.72;0.50;;;1.70;99.90;;;;;;4959867;28;20043;-65
2021/12/02 06:30:25;;;;;;;2.42;0.82;;;1.70;99.90;;;;;;4942792;28;20055;-65
2021/12/02 06:32:51;;;;;;;0.98;0.30;;;1.70;99.90;;;;;;4968985;28;20085;-65
2021/12/02 06:35:17;;;;;;;3.78;0.60;;;1.70;99.90;;;;;;4946799;28;20154;-65
2021/12/02 06:37:45;;;;;;;4.20;0.55;;;1.70;99.90;;;;;;4960397;28;20050;-65
2021/12/02 06:40:12;;;;;;;4.18;0.45;;;1.70;99.90;;;;;;4969144;28;20415;-65
2021/12/02 06:42:38;;;;;;;1.27;0.40;;;1.80;99.90;;;;;;4946539;28;20043;-65
2021/12/02 06:45:04;;;;;;;4.63;0.40;;;1.80;99.90;;;;;;4963708;28;20049;-66
2021/12/02 06:47:38;;;;;;;4.10;0.50;;;1.80;99.90;;;;;;4958903;28;20045;-65
2021/12/02 06:50:09;;;;;;;5.07;0.60;;;1.80;99.90;;;;;;4966837;28;20053;-65
2021/12/02 06:52:36;;;;;;;1.05;0.20;;;1.90;99.90;;;;;;4959501;28;20062;-65
2021/12/02 06:55:03;;;;;;;2.50;0.40;;;1.90;99.90;;;;;;4968679;28;20422;-66
2021/12/02 06:57:29;;;;;;;3.80;0.30;;;2.00;99.90;;;;;;4941148;28;20113;-65
2021/12/02 06:59:54;;;;;;;1.67;0.30;;;2.00;99.90;;;;;;4966152;28;20608;-65
2021/12/02 07:02:20;;;;;;;4.18;0.30;;;2.00;99.90;;;;;;4957362;28;20077;-65
2021/12/02 07:04:46;;;;;;;3.70;0.30;;;2.00;99.90;;;;;;4945782;29;20052;-66
2021/12/02 07:07:12;;;;;;;3.17;0.30;;;2.00;99.90;;;;;;4942817;28;20136;-66
2021/12/02 07:09:38;;;;;;;2.53;0.38;;;2.10;99.90;;;;;;4949569;28;20554;-66
2021/12/02 07:12:04;;;;;;;3.47;0.30;;;2.00;99.90;;;;;;4934506;28;20137;-66
2021/12/02 07:14:29;;;;;;;1.58;0.30;;;2.00;99.90;;;;;;4946558;29;20499;-66
2021/12/02 07:16:57;;;;;;;2.25;0.22;;;2.00;99.90;;;;;;4944996;28;20127;-66
2021/12/02 07:19:24;;;;;;;2.20;0.22;;;2.00;99.90;;;;;;4938787;28;20047;-66
2021/12/02 07:21:49;;;;;;;2.88;0.20;;;2.00;99.90;;;;;;4944927;29;20531;-70
2021/12/02 07:24:16;;;;;;;5.07;0.50;;;2.00;99.90;;;;;;4942223;28;20043;-66
2021/12/02 07:26:43;;;;;;;1.70;0.40;;;2.10;99.90;;;;;;4946046;29;20094;-66
2021/12/02 07:29:18;;;;;;;2.92;0.28;;;2.10;99.90;;;;;;4938488;28;21038;-66
2021/12/02 07:31:44;;;;;;;2.30;0.45;;;2.10;99.90;;;;;;4944826;29;20051;-65
2021/12/02 07:34:10;;;;;;;3.13;0.60;;;2.10;99.90;;;;;;4922148;29;20460;-66
2021/12/02 07:36:37;;;;;;;4.25;0.50;;;2.10;99.90;;;;;;4948707;29;20043;-66
2021/12/02 07:39:07;;;;;;;3.13;0.60;;;2.10;99.90;;;;;;4937268;28;20130;-65
2021/12/02 07:41:33;;;;;;;2.58;0.90;;;2.20;99.90;;;;;;4943649;29;20039;-65
2021/12/02 07:43:59;;;;;;;3.85;1.00;;;2.20;99.90;;;;;;4938115;28;20048;-66
2021/12/02 07:46:24;;;;;;;4.70;1.02;;;2.20;99.90;;;;;;4942107;28;20036;-66
2021/12/02 07:48:52;;;;;;;5.95;1.33;;;2.20;99.90;;;;;;4933055;28;20051;-66
2021/12/02 07:51:18;;;;;;;3.33;1.00;;;2.20;99.90;;;;;;4945918;29;20054;-66
2021/12/02 07:53:46;;;;;;;3.25;0.80;;;2.30;99.90;;;;;;4937116;28;20044;-67
2021/12/02 07:56:14;;;;;;;4.82;1.20;;;2.30;99.90;;;;;;4943527;28;20089;-66
2021/12/02 07:58:44;;;;;;;8.02;1.10;;;2.30;99.90;;;;;;4947017;29;20121;-66
2021/12/02 08:01:10;;;;;;;3.30;0.73;;;2.30;99.90;;;;;;4940719;28;20091;-66
2021/12/02 08:03:37;;;;;;;3.15;0.88;;;2.30;99.90;;;;;;4945401;28;20061;-66
2021/12/02 08:06:03;;;;;;;4.07;0.82;;;2.30;99.90;;;;;;4938093;28;20051;-66
2021/12/02 08:08:29;;;;;;;6.20;0.70;;;2.30;99.90;;;;;;4968883;28;20042;-66
2021/12/02 08:10:55;;;;;;;1.90;0.60;;;2.30;99.90;;;;;;4962478;28;20046;-66
2021/12/02 08:13:28;;;;;;;3.70;0.90;;;2.40;99.90;;;;;;4961773;28;20034;-66
2021/12/02 08:15:54;;;;;;;3.63;0.82;;;2.50;99.90;;;;;;4960830;28;20031;-66
2021/12/02 08:18:20;;;;;;;3.03;0.95;;;2.50;99.90;;;;;;4953092;28;20126;-66
2021/12/02 08:20:46;;;;;;;4.07;0.70;;;2.60;99.90;;;;;;4956546;28;20066;-66
2021/12/02 08:23:11;;;;;;;7.25;0.77;;;2.70;99.90;;;;;;4959111;28;20487;-66
2021/12/02 08:25:37;;;;;;;2.20;0.52;;;2.80;99.90;;;;;;4961266;28;20038;-66
2021/12/02 08:28:03;;;;;;;1.73;0.28;;;2.80;99.90;;;;;;4946920;28;20066;-65
2021/12/02 08:30:33;;;;;;;2.50;0.30;;;2.80;99.90;;;;;;4961907;28;20034;-66
2021/12/02 08:32:59;;;;;;;0.93;0.30;;;2.80;99.90;;;;;;4963396;28;20039;-66
2021/12/02 08:35:26;;;;;;;1.58;0.15;;;2.90;99.90;;;;;;4961341;28;20063;-66
2021/12/02 08:37:55;;;;;;;2.90;0.50;;;2.90;99.90;;;;;;4944350;28;20062;-66
2021/12/02 08:40:36;;;;;;;1.98;0.10;;;2.90;99.90;;;;;;4943310;28;20178;-66
2021/12/02 08:43:10;;;;;;;1.85;0.20;;;3.00;99.90;;;;;;4944771;28;20035;-66
2021/12/02 08:45:38;;;;;;;0.45;0.10;;;3.00;99.90;;;;;;4963468;28;20043;-66
2021/12/02 08:48:05;;;;;;;0.88;0.10;;;2.90;99.90;;;;;;4968119;28;20049;-66
2021/12/02 08:50:32;;;;;;;0.63;0.20;;;3.00;99.90;;;;;;4971073;28;20039;-66
2021/12/02 08:52:59;;;;;;;0.88;0.22;;;2.90;99.90;;;;;;4958961;28;20050;-66
2021/12/02 08:55:25;;;;;;;1.88;0.17;;;2.80;99.90;;;;;;4964198;28;20070;-66
2021/12/02 08:57:52;;;;;;;4.18;0.32;;;2.80;99.90;;;;;;4937656;28;20055;-65
2021/12/02 09:00:21;;;;;;;0.30;0.10;;;2.70;99.90;;;;;;4952894;28;20158;-65
2021/12/02 09:02:47;;;;;;;2.72;0.22;;;2.70;99.90;;;;;;4957985;28;20210;-66
2021/12/02 09:05:14;;;;;;;1.90;0.35;;;2.60;99.90;;;;;;4969883;28;20047;-65
2021/12/02 09:07:40;;;;;;;2.30;0.50;;;2.60;99.90;;;;;;4959921;28;20087;-65
2021/12/02 09:10:08;;;;;;;2.20;0.30;;;2.50;99.90;;;;;;4972561;28;20387;-65
2021/12/02 09:12:35;;;;;;;2.72;0.60;;;2.50;99.90;;;;;;4963297;28;20090;-65
2021/12/02 09:15:01;;;;;;;2.30;0.40;;;2.50;99.90;;;;;;4966227;28;20047;-65
2021/12/02 09:17:26;;;;;;;2.03;0.30;;;2.50;99.90;;;;;;4952878;28;20046;-65
2021/12/02 09:19:52;;;;;;;2.85;0.38;;;2.50;99.90;;;;;;4970451;28;20074;-66
2021/12/02 09:22:18;;;;;;;1.73;0.55;;;2.50;99.90;;;;;;4961389;28;20053;-66
2021/12/02 09:24:44;;;;;;;2.35;0.60;;;2.50;99.90;;;;;;4967176;28;20125;-65
2021/12/02 09:27:10;;;;;;;4.88;0.70;;;2.60;99.90;;;;;;4963131;28;20043;-65
2021/12/02 09:29:36;;;;;;;2.60;0.50;;;2.70;99.90;;;;;;4962769;28;20114;-65
2021/12/02 09:32:03;;;;;;;3.35;0.52;;;2.80;99.90;;;;;;4967295;28;20035;-65
2021/12/02 09:34:28;;;;;;;2.55;0.40;;;2.90;99.90;;;;;;4961178;28;20031;-65
2021/12/02 09:36:56;;;;;;;1.83;0.40;;;3.00;99.90;;;;;;4968942;28;20782;-66
2021/12/02 09:39:29;;;;;;;4.95;0.57;;;3.00;99.90;;;;;;4965068;28;20038;-65
2021/12/02 09:41:54;;;;;;;1.52;0.30;;;3.00;99.90;;;;;;4968131;28;20117;-65
2021/12/02 09:44:20;;;;;;;1.90;0.30;;;3.10;99.90;;;;;;4948753;28;20189;-65
2021/12/02 09:46:46;;;;;;;2.97;0.30;;;3.20;99.90;;;;;;4971251;28;20062;-65
2021/12/02 09:49:13;;;;;;;1.15;0.40;;;3.20;99.90;;;;;;4956473;28;20131;-66
2021/12/02 09:51:57;;;;;;;2.45;0.30;;;3.30;99.90;;;;;;4967697;28;20098;-65
2021/12/02 09:57:06;;;;;;;2.00;0.30;;;3.60;99.90;;;;;;4966127;28;20435;-65
2021/12/02 10:02:06;;;;;;;1.33;0.32;;;3.70;99.90;;;;;;4968246;28;20043;-65
2021/12/02 10:04:36;;;;;;;2.80;0.60;;;3.80;99.90;;;;;;4959865;28;20042;-65
2021/12/02 10:07:24;;;;;;;2.25;0.63;;;3.80;99.90;;;;;;4966468;28;20093;-65
2021/12/02 10:10:01;;;;;;;1.70;0.40;;;4.00;99.90;;;;;;4963070;28;20039;-65
2021/12/02 10:12:28;;;;;;;3.80;0.30;;;4.00;99.90;;;;;;4964318;28;20050;-65
2021/12/02 10:14:58;;;;;;;2.88;0.35;;;4.00;99.90;;;;;;4962558;28;20043;-65
2021/12/02 10:17:35;;;;;;;3.65;0.45;;;4.00;99.90;;;;;;4967008;28;20055;-65
2021/12/02 10:20:32;;;;;;;3.10;0.40;;;4.00;99.90;;;;;;4957685;28;20036;-65
2021/12/02 10:23:29;;;;;;;1.65;0.30;;;3.90;99.90;;;;;;4967645;28;20035;-65
2021/12/02 10:26:04;;;;;;;2.33;0.30;;;3.90;99.90;;;;;;4961499;28;20114;-65
2021/12/02 10:28:34;;;;;;;3.75;0.30;;;3.80;99.90;;;;;;4965753;28;20042;-65
2021/12/02 10:31:03;;;;;;;2.65;0.28;;;3.80;99.90;;;;;;4964451;28;20039;-65
2021/12/02 10:33:33;;;;;;;1.10;0.25;;;3.90;99.90;;;;;;4947151;28;20043;-65
2021/12/02 10:36:01;;;;;;;2.58;0.47;;;4.00;99.90;;;;;;4960788;28;20035;-65
2021/12/02 10:38:36;;;;;;;1.80;0.45;;;4.20;99.90;;;;;;4966622;28;20093;-65
2021/12/02 10:41:24;;;;;;;1.75;0.30;;;4.30;99.90;;;;;;4960834;28;20043;-65
2021/12/02 10:44:11;;;;;;;3.70;0.52;;;4.30;99.90;;;;;;4966143;28;20053;-65
2021/12/02 10:46:42;;;;;;;1.63;0.68;;;4.20;99.90;;;;;;4948220;28;20038;-65
2021/12/02 10:49:15;;;;;;;2.80;0.50;;;4.20;99.90;;;;;;4951562;28;20054;-65
2021/12/02 10:51:54;;;;;;;1.58;0.45;;;4.20;99.90;;;;;;4962721;28;20109;-65
2021/12/02 10:54:27;;;;;;;5.85;0.90;;;4.10;99.90;;;;;;4949936;28;20035;-65
2021/12/02 10:56:56;;;;;;;1.77;0.85;;;4.10;99.90;;;;;;4960989;28;20375;-65
2021/12/02 10:59:37;;;;;;;2.15;0.30;;;4.00;99.90;;;;;;4963723;28;20061;-65
2021/12/02 11:02:07;;;;;;;1.23;0.13;;;3.70;99.90;;;;;;4945263;28;20043;-66
2021/12/02 11:04:41;;;;;;;0.47;0.10;;;3.30;99.90;;;;;;4966060;28;20055;-65
2021/12/02 11:07:13;;;;;;;;;;;2.90;99.90;;;;;;4957861;28;20038;-65
2021/12/02 11:09:40;;;;;;;2.72;0.30;;;2.60;99.90;;;;;;4981152;28;20371;-66
2021/12/02 11:12:18;;;;;;;0.47;0.13;;;2.40;99.90;;;;;;4960048;28;20054;-65
2021/12/02 11:15:09;;;;;;;1.25;0.38;;;2.40;99.90;;;;;;4961615;28;20104;-66
2021/12/02 11:17:40;;;;;;;0.95;0.20;;;2.40;99.90;;;;;;4957927;28;20097;-65
2021/12/02 11:20:11;;;;;;;0.52;0.30;;;2.40;99.90;;;;;;4966732;28;20070;-65
2021/12/02 11:22:37;;;;;;;1.30;0.32;;;2.50;99.90;;;;;;4944262;28;20069;-65
2021/12/02 11:25:06;;;;;;;1.15;0.30;;;2.50;99.90;;;;;;4963286;28;20043;-66
2021/12/02 11:27:39;;;;;;;0.70;0.30;;;2.50;99.90;;;;;;4961133;28;20468;-66
2021/12/02 11:30:11;;;;;;;1.95;0.60;;;2.50;99.90;;;;;;4946261;28;20047;-65
2021/12/02 11:32:49;;;;;;;1.20;0.40;;;2.50;99.90;;;;;;4959367;28;20075;-66
2021/12/02 11:35:17;;;;;;;1.60;0.30;;;2.50;99.90;;;;;;4961766;28;20043;-66
2021/12/02 11:37:56;;;;;;;4.03;0.40;;;2.50;99.90;;;;;;4937083;28;20117;-66
2021/12/02 11:40:26;;;;;;;2.03;0.40;;;2.50;99.90;;;;;;4961820;28;20041;-66
2021/12/02 11:42:53;;;;;;;2.00;0.68;;;2.50;99.90;;;;;;4940852;28;20411;-66
2021/12/02 11:45:21;;;;;;;2.28;1.02;;;2.60;99.90;;;;;;4949189;28;20506;-66
2021/12/02 11:47:48;;;;;;;2.60;0.57;;;2.60;99.90;;;;;;4958626;28;20357;-66
2021/12/02 11:50:15;;;;;;;1.35;0.35;;;2.70;99.90;;;;;;4966415;28;20031;-66
2021/12/02 11:52:42;;;;;;;1.10;0.50;;;2.70;99.90;;;;;;4962892;28;20055;-66
2021/12/02 11:55:14;;;;;;;1.20;0.40;;;2.80;99.90;;;;;;4938342;28;20345;-66
2021/12/02 11:57:41;;;;;;;2.05;0.40;;;2.90;99.90;;;;;;4948316;28;20419;-66
2021/12/02 12:00:10;;;;;;;2.47;0.50;;;3.00;99.90;;;;;;4955977;28;20050;-66
2021/12/02 12:02:38;;;;;;;0.40;0.08;;;3.00;99.90;;;;;;4958353;28;20579;-66
2021/12/02 12:05:05;;;;;;;1.00;0.30;;;2.90;99.90;;;;;;4938657;28;20525;-66
2021/12/02 12:07:42;;;;;;;2.28;0.30;;;2.90;99.90;;;;;;4946020;28;20050;-66
2021/12/02 12:10:14;;;;;;;4.03;0.45;;;2.90;99.90;;;;;;4941336;28;20180;-66
2021/12/02 12:12:43;;;;;;;1.33;0.40;;;2.80;99.90;;;;;;4963016;28;20097;-66
2021/12/02 12:15:35;;;;;;;1.88;0.20;;;2.80;99.90;;;;;;4955752;28;20166;-66
2021/12/02 12:18:02;;;;;;;0.93;0.20;;;2.70;99.90;;;;;;4948345;28;20414;-65
2021/12/02 12:20:58;;;;;;;2.05;0.30;;;2.70;99.90;;;;;;4960019;28;20046;-66
2021/12/02 12:23:40;;;;;;;1.45;0.20;;;2.70;99.90;;;;;;4964824;28;20038;-65
2021/12/02 12:26:18;;;;;;;1.30;0.20;;;2.50;99.90;;;;;;4958767;28;20038;-66
2021/12/02 12:29:07;;;;;;;3.20;0.32;;;2.50;99.90;;;;;;4960978;28;20049;-66
2021/12/02 12:37:20;;;;;;;1.60;0.30;;;2.50;99.90;;;;;;4965236;28;20134;-66
2021/12/02 12:40:09;;;;;;;0.80;0.30;;;2.40;99.90;;;;;;4958756;28;20053;-66
2021/12/02 12:42:49;;;;;;;6.78;0.50;;;2.40;99.90;;;;;;4965607;28;20050;-66
2021/12/02 12:45:39;;;;;;;3.83;0.63;;;2.40;99.90;;;;;;4955860;28;20050;-66
2021/12/02 12:48:08;;;;;;;3.30;1.20;;;2.40;99.90;;;;;;4964260;28;20042;-66
2021/12/02 12:50:39;;;;;;;5.60;0.98;;;2.40;99.90;;;;;;4959925;28;20535;-66
2021/12/02 12:53:05;;;;;;;2.55;0.60;;;2.40;99.90;;;;;;4966832;28;20054;-66
2021/12/02 12:55:55;;;;;;;1.77;0.20;;;2.30;99.90;;;;;;4956490;28;20085;-66
2021/12/02 12:58:29;;;;;;;1.05;0.20;;;2.30;99.90;;;;;;4950237;28;20052;-66
2021/12/02 13:01:01;;;;;;;2.65;0.65;;;2.30;99.90;;;;;;4959642;28;20027;-65
2021/12/02 13:06:32;;;;;;;1.65;0.60;;;2.20;99.90;;;;;;4959616;28;20071;-66
2021/12/02 13:09:03;;;;;;;2.80;0.43;;;2.40;99.90;;;;;;4964061;28;20127;-65
2021/12/02 13:11:32;;;;;;;2.50;0.50;;;2.30;99.90;;;;;;4957041;28;20070;-66
2021/12/02 13:14:00;;;;;;;2.80;0.45;;;2.40;99.90;;;;;;4962278;28;20057;-65
2021/12/02 13:16:29;;;;;;;1.63;0.40;;;2.40;99.90;;;;;;4956565;28;20042;-66
2021/12/02 13:19:01;;;;;;;3.30;0.50;;;2.40;99.90;;;;;;4950081;28;20139;-65
2021/12/02 13:24:14;;;;;;;2.95;0.30;;;2.50;99.90;;;;;;4960512;28;20158;-65
2021/12/02 13:26:45;;;;;;;0.95;0.38;;;2.50;99.90;;;;;;4955954;28;20047;-66
2021/12/02 13:29:22;;;;;;;1.88;0.38;;;2.50;99.90;;;;;;4962381;28;20075;-65
2021/12/02 13:31:54;;;;;;;1.15;0.40;;;2.60;99.90;;;;;;4956044;28;20036;-65
2021/12/02 13:34:22;;;;;;;1.38;0.35;;;2.60;99.90;;;;;;4967868;28;20391;-65
2021/12/02 13:37:04;;;;;;;2.60;0.40;;;2.60;99.90;;;;;;4962873;28;20129;-65
2021/12/02 13:39:35;;;;;;;1.45;0.30;;;2.50;99.90;;;;;;4961464;28;20937;-65
2021/12/02 13:42:13;;;;;;;1.83;0.40;;;2.50;99.90;;;;;;4948196;28;20061;-65
2021/12/02 13:44:47;;;;;;;0.65;0.30;;;2.40;99.90;;;;;;4949037;28;20051;-65